createdAt,value
2018-07-16T00:00:16.355Z,1.70
2018-07-16T00:02:44.191Z,1.70
2018-07-16T00:05:12.411Z,1.90
2018-07-16T00:07:40.221Z,1.80
2018-07-16T00:10:08.056Z,2.10
2018-07-16T00:12:35.865Z,1.80
2018-07-16T00:15:03.706Z,1.90
2018-07-16T00:17:31.688Z,1.70
2018-07-16T00:19:59.448Z,1.93
2018-07-16T00:22:27.229Z,1.53
2018-07-16T00:24:55.100Z,2.00
2018-07-16T00:27:22.825Z,1.60
2018-07-16T00:29:50.557Z,1.77
2018-07-16T00:32:18.325Z,1.53
2018-07-16T00:34:46.059Z,1.70
2018-07-16T00:37:13.942Z,1.60
2018-07-16T00:39:41.660Z,2.20
2018-07-16T00:42:09.372Z,1.97
2018-07-16T00:44:37.164Z,1.77
2018-07-16T00:47:05.140Z,1.80
2018-07-16T00:49:32.854Z,1.63
2018-07-16T00:52:00.617Z,1.80
2018-07-16T00:54:28.366Z,1.87
2018-07-16T00:56:56.109Z,2.03
2018-07-16T00:59:23.819Z,1.83
2018-07-16T01:01:51.567Z,1.87
2018-07-16T01:04:19.327Z,1.60
2018-07-16T01:06:47.088Z,1.97
2018-07-16T01:09:14.849Z,1.90
2018-07-16T01:11:42.581Z,1.87
2018-07-16T01:14:10.393Z,1.80
2018-07-16T01:16:38.092Z,1.90
2018-07-16T01:19:05.875Z,1.90
2018-07-16T01:21:33.624Z,1.93
2018-07-16T01:24:01.359Z,2.03
2018-07-16T01:26:29.141Z,1.90
2018-07-16T01:28:56.910Z,2.10
2018-07-16T01:31:24.662Z,1.70
2018-07-16T01:33:52.399Z,2.00
2018-07-16T01:36:20.145Z,2.00
2018-07-16T01:38:47.895Z,2.20
2018-07-16T01:41:15.647Z,2.10
2018-07-16T01:43:43.368Z,1.97
2018-07-16T01:46:11.077Z,1.73
2018-07-16T01:48:38.791Z,1.90
2018-07-16T01:51:06.487Z,1.90
2018-07-16T01:53:34.261Z,1.80
2018-07-16T01:56:02.061Z,1.80
2018-07-16T01:58:29.786Z,1.87
2018-07-16T02:00:59.496Z,1.80
2018-07-16T02:03:28.600Z,2.10
2018-07-16T02:05:56.387Z,1.83
2018-07-16T02:08:24.980Z,1.80
2018-07-16T02:10:53.022Z,2.00
2018-07-16T02:13:21.163Z,1.90
2018-07-16T02:15:48.985Z,1.67
2018-07-16T02:18:16.714Z,2.00
2018-07-16T02:20:45.307Z,2.03
2018-07-16T02:23:13.235Z,1.97
2018-07-16T02:25:41.090Z,1.80
2018-07-16T02:28:09.447Z,1.90
2018-07-16T02:30:37.833Z,2.20
2018-07-16T02:33:05.905Z,1.90
2018-07-16T02:35:33.786Z,2.03
2018-07-16T02:38:01.596Z,2.00
2018-07-16T02:40:29.476Z,2.40
2018-07-16T02:42:57.304Z,2.10
2018-07-16T02:45:25.293Z,2.10
2018-07-16T02:47:53.086Z,1.80
2018-07-16T02:50:20.995Z,1.80
2018-07-16T02:52:48.810Z,1.97
2018-07-16T02:55:16.539Z,1.80
2018-07-16T02:57:44.285Z,1.97
2018-07-16T03:00:12.046Z,2.10
2018-07-16T03:02:40.114Z,1.80
2018-07-16T03:05:12.385Z,2.10
2018-07-16T03:07:40.363Z,1.80
2018-07-16T03:10:08.116Z,1.60
2018-07-16T03:12:36.001Z,1.73
2018-07-16T03:15:04.518Z,1.97
2018-07-16T03:17:32.354Z,1.80
2018-07-16T03:20:00.114Z,1.90
2018-07-16T03:22:27.892Z,1.90
2018-07-16T03:24:55.652Z,1.90
2018-07-16T03:27:23.469Z,1.70
2018-07-16T03:29:51.332Z,1.90
2018-07-16T03:32:19.064Z,2.10
2018-07-16T03:34:47.073Z,2.20
2018-07-16T03:37:14.831Z,2.00
2018-07-16T03:42:15.879Z,2.30
2018-07-16T03:44:43.668Z,2.00
2018-07-16T03:47:11.405Z,2.07
2018-07-16T03:49:39.164Z,2.20
2018-07-16T03:52:06.991Z,2.00
2018-07-16T03:54:34.741Z,2.03
2018-07-16T03:57:02.675Z,2.07
2018-07-16T03:59:30.400Z,2.00
2018-07-16T04:01:58.178Z,1.97
2018-07-16T04:04:25.921Z,2.03
2018-07-16T04:06:53.679Z,2.10
2018-07-16T04:09:21.428Z,1.90
2018-07-16T04:11:49.173Z,1.87
2018-07-16T04:14:16.961Z,1.93
2018-07-16T04:16:44.670Z,1.80
2018-07-16T04:19:12.423Z,2.00
2018-07-16T04:21:40.172Z,1.90
2018-07-16T04:24:07.985Z,1.80
2018-07-16T04:26:35.763Z,1.90
2018-07-16T04:29:03.475Z,2.10
2018-07-16T04:31:31.240Z,1.93
2018-07-16T04:33:58.999Z,1.80
2018-07-16T04:36:26.833Z,2.00
2018-07-16T04:38:54.587Z,2.13
2018-07-16T04:41:22.302Z,2.17
2018-07-16T04:43:50.653Z,1.90
2018-07-16T04:46:18.535Z,2.20
2018-07-16T04:48:46.302Z,2.10
2018-07-16T04:51:14.051Z,2.50
2018-07-16T04:53:42.550Z,2.07
2018-07-16T04:56:10.991Z,2.40
2018-07-16T04:58:39.321Z,1.83
2018-07-16T05:01:07.560Z,2.03
2018-07-16T05:03:35.326Z,1.97
2018-07-16T05:06:03.537Z,1.90
2018-07-16T05:08:31.902Z,2.10
2018-07-16T05:10:59.711Z,2.07
2018-07-16T05:13:27.349Z,2.10
2018-07-16T05:15:55.107Z,2.20
2018-07-16T05:18:23.025Z,2.00
2018-07-16T05:20:50.711Z,1.93
2018-07-16T05:23:18.427Z,2.20
2018-07-16T05:25:46.195Z,2.40
2018-07-16T05:28:14.924Z,2.20
2018-07-16T05:30:42.666Z,2.00
2018-07-16T05:33:10.515Z,2.20
2018-07-16T05:35:39.165Z,1.80
2018-07-16T05:38:07.049Z,2.10
2018-07-16T05:40:35.282Z,2.10
2018-07-16T05:43:03.121Z,2.00
2018-07-16T05:45:30.933Z,2.03
2018-07-16T05:47:58.699Z,2.10
2018-07-16T05:50:27.025Z,2.07
2018-07-16T05:52:54.734Z,2.30
2018-07-16T05:55:22.427Z,1.97
2018-07-16T05:57:51.087Z,2.17
2018-07-16T06:00:18.793Z,1.90
2018-07-16T06:02:46.510Z,2.00
2018-07-16T06:05:14.227Z,1.90
2018-07-16T06:07:41.795Z,1.90
2018-07-16T06:10:09.561Z,1.90
2018-07-16T06:12:37.265Z,2.10
2018-07-16T06:15:05.734Z,1.70
2018-07-16T06:17:33.427Z,2.13
2018-07-16T06:20:01.124Z,1.90
2018-07-16T06:22:29.026Z,2.00
2018-07-16T06:24:57.339Z,1.93
2018-07-16T06:27:25.088Z,1.70
2018-07-16T06:29:52.830Z,2.00
2018-07-16T06:32:20.557Z,2.13
2018-07-16T06:34:48.259Z,1.90
2018-07-16T06:37:15.988Z,1.67
2018-07-16T06:39:45.021Z,1.90
2018-07-16T06:42:12.648Z,2.00
2018-07-16T06:44:40.340Z,1.83
2018-07-16T06:47:08.847Z,1.50
2018-07-16T06:49:36.552Z,1.77
2018-07-16T06:52:04.679Z,1.70
2018-07-16T06:54:32.372Z,1.60
2018-07-16T06:57:00.210Z,1.67
2018-07-16T06:59:28.484Z,1.60
2018-07-16T07:01:56.217Z,1.70
2018-07-16T07:04:23.908Z,1.60
2018-07-16T07:06:51.600Z,1.50
2018-07-16T07:09:19.329Z,1.60
2018-07-16T07:11:47.016Z,1.70
2018-07-16T07:14:14.738Z,1.47
2018-07-16T07:16:42.440Z,1.50
2018-07-16T07:19:10.173Z,1.80
2018-07-16T07:21:37.856Z,1.60
2018-07-16T07:24:05.628Z,1.63
2018-07-16T07:26:33.358Z,1.63
2018-07-16T07:29:02.061Z,1.70
2018-07-16T07:31:29.938Z,1.90
2018-07-16T07:33:58.228Z,1.43
2018-07-16T07:36:25.943Z,1.50
2018-07-16T07:38:53.641Z,1.40
2018-07-16T07:41:21.329Z,1.70
2018-07-16T07:43:49.076Z,1.50
2018-07-16T07:46:16.837Z,1.50
2018-07-16T07:48:44.557Z,1.60
2018-07-16T07:51:12.239Z,1.40
2018-07-16T07:53:39.952Z,1.40
2018-07-16T07:56:07.677Z,1.40
2018-07-16T07:58:35.398Z,1.30
2018-07-16T08:01:03.820Z,1.60
2018-07-16T08:03:31.544Z,1.53
2018-07-16T08:06:05.788Z,1.40
2018-07-16T08:08:34.658Z,1.40
2018-07-16T08:11:03.581Z,1.47
2018-07-16T08:13:32.157Z,1.60
2018-07-16T08:15:59.905Z,1.27
2018-07-16T08:18:27.773Z,1.40
2018-07-16T08:20:56.094Z,1.33
2018-07-16T08:23:24.460Z,1.40
2018-07-16T08:25:53.444Z,1.30
2018-07-16T08:28:21.652Z,1.37
2018-07-16T08:30:49.621Z,1.50
2018-07-16T08:33:17.363Z,1.23
2018-07-16T08:35:45.137Z,1.20
2018-07-16T08:38:12.849Z,1.50
2018-07-16T08:40:40.679Z,1.30
2018-07-16T08:43:08.397Z,1.37
2018-07-16T08:45:36.161Z,1.30
2018-07-16T08:48:03.908Z,1.40
2018-07-16T08:50:31.601Z,1.30
2018-07-16T08:52:59.348Z,1.30
2018-07-16T08:55:27.276Z,1.30
2018-07-16T08:57:54.962Z,1.50
2018-07-16T09:00:22.969Z,1.40
2018-07-16T09:02:50.758Z,1.30
2018-07-16T09:05:18.453Z,1.33
2018-07-16T09:07:46.154Z,1.13
2018-07-16T09:10:13.849Z,1.40
2018-07-16T09:12:41.556Z,1.20
2018-07-16T09:15:09.322Z,1.40
2018-07-16T09:17:37.212Z,1.40
2018-07-16T09:20:04.928Z,1.40
2018-07-16T09:22:32.640Z,1.30
2018-07-16T09:25:00.379Z,1.20
2018-07-16T09:27:28.089Z,1.20
2018-07-16T09:29:55.804Z,1.27
2018-07-16T09:32:23.519Z,1.30
2018-07-16T09:34:51.234Z,1.30
2018-07-16T09:37:19.580Z,1.40
2018-07-16T09:39:47.275Z,1.40
2018-07-16T09:42:15.262Z,1.20
2018-07-16T09:44:42.965Z,1.40
2018-07-16T09:47:10.722Z,1.30
2018-07-16T09:49:38.447Z,1.37
2018-07-16T09:52:06.477Z,1.40
2018-07-16T09:54:34.163Z,1.30
2018-07-16T09:57:01.866Z,1.50
2018-07-16T09:59:29.588Z,1.30
2018-07-16T10:02:02.903Z,1.20
2018-07-16T10:04:30.619Z,1.10
2018-07-16T10:06:58.303Z,1.20
2018-07-16T10:09:26.010Z,1.10
2018-07-16T10:11:53.730Z,1.23
2018-07-16T10:14:21.431Z,1.07
2018-07-16T10:16:49.129Z,1.27
2018-07-16T10:19:16.824Z,1.20
2018-07-16T10:21:44.529Z,1.50
2018-07-16T10:24:12.230Z,1.10
2018-07-16T10:26:39.954Z,1.10
2018-07-16T10:29:07.731Z,1.10
2018-07-16T10:31:35.460Z,1.10
2018-07-16T10:34:03.192Z,1.30
2018-07-16T10:36:30.880Z,1.10
2018-07-16T10:38:58.609Z,1.20
2018-07-16T10:41:26.304Z,1.10
2018-07-16T10:43:54.160Z,1.37
2018-07-16T10:46:21.870Z,1.30
2018-07-16T10:48:49.576Z,1.30
2018-07-16T10:51:17.296Z,1.40
2018-07-16T10:53:45.012Z,1.13
2018-07-16T10:56:12.744Z,1.20
2018-07-16T10:58:40.909Z,1.10
2018-07-16T11:01:08.834Z,1.20
2018-07-16T11:03:36.566Z,1.00
2018-07-16T11:06:10.013Z,1.20
2018-07-16T11:08:37.726Z,1.30
2018-07-16T11:11:05.614Z,1.30
2018-07-16T11:13:33.330Z,1.20
2018-07-16T11:16:01.034Z,1.17
2018-07-16T11:18:28.752Z,1.20
2018-07-16T11:20:56.477Z,1.20
2018-07-16T11:23:24.200Z,0.90
2018-07-16T11:25:52.912Z,1.30
2018-07-16T11:28:20.599Z,1.27
2018-07-16T11:30:48.444Z,1.30
2018-07-16T11:33:16.924Z,1.03
2018-07-16T11:35:45.121Z,1.20
2018-07-16T11:38:12.982Z,0.90
2018-07-16T11:40:40.755Z,1.17
2018-07-16T11:43:08.458Z,1.20
2018-07-16T11:45:36.170Z,1.33
2018-07-16T11:48:04.227Z,1.33
2018-07-16T11:50:31.948Z,1.20
2018-07-16T11:52:59.669Z,1.20
2018-07-16T11:55:28.160Z,1.30
2018-07-16T11:57:55.853Z,1.30
2018-07-16T12:00:23.773Z,1.27
2018-07-16T12:02:51.646Z,1.20
2018-07-16T12:05:19.380Z,1.20
2018-07-16T12:07:47.150Z,1.20
2018-07-16T12:10:15.304Z,1.30
2018-07-16T12:12:43.159Z,1.10
2018-07-16T12:15:10.741Z,1.10
2018-07-16T12:17:38.435Z,1.30
2018-07-16T12:20:06.124Z,1.20
2018-07-16T12:22:33.835Z,1.50
2018-07-16T12:25:01.574Z,1.40
2018-07-16T12:27:29.692Z,1.30
2018-07-16T12:29:57.412Z,1.30
2018-07-16T12:32:25.151Z,1.33
2018-07-16T12:34:52.867Z,1.20
2018-07-16T12:37:20.548Z,1.10
2018-07-16T12:39:48.416Z,1.20
2018-07-16T12:42:17.936Z,1.30
2018-07-16T12:44:45.632Z,1.27
2018-07-16T12:47:13.344Z,1.20
2018-07-16T12:49:41.033Z,1.10
2018-07-16T12:52:09.324Z,1.17
2018-07-16T12:54:37.026Z,1.13
2018-07-16T12:57:04.779Z,1.20
2018-07-16T12:59:32.464Z,1.20
2018-07-16T13:02:00.173Z,0.90
2018-07-16T13:04:27.893Z,1.13
2018-07-16T13:06:55.589Z,1.20
2018-07-16T13:09:24.007Z,1.30
2018-07-16T13:11:51.709Z,1.23
2018-07-16T13:14:19.401Z,1.10
2018-07-16T13:16:47.100Z,1.00
2018-07-16T13:19:14.786Z,1.20
2018-07-16T13:21:42.484Z,1.20
2018-07-16T13:24:10.247Z,1.27
2018-07-16T13:26:38.724Z,1.30
2018-07-16T13:29:06.425Z,1.13
2018-07-16T13:31:34.165Z,1.13
2018-07-16T13:34:01.880Z,1.13
2018-07-16T13:36:29.724Z,1.20
2018-07-16T13:38:57.391Z,1.20
2018-07-16T13:41:25.209Z,1.30
2018-07-16T13:43:52.904Z,1.30
2018-07-16T13:46:20.489Z,1.00
2018-07-16T13:48:48.301Z,1.20
2018-07-16T13:51:15.972Z,1.20
2018-07-16T13:53:43.803Z,1.10
2018-07-16T13:56:11.847Z,1.20
2018-07-16T13:58:39.555Z,1.30
2018-07-16T14:01:07.264Z,1.20
2018-07-16T14:03:34.973Z,1.33
2018-07-16T14:06:03.320Z,1.23
2018-07-16T14:08:31.030Z,1.10
2018-07-16T14:10:58.750Z,1.37
2018-07-16T14:13:26.951Z,1.33
2018-07-16T14:15:55.342Z,1.20
2018-07-16T14:18:23.064Z,1.23
2018-07-16T14:20:50.993Z,1.37
2018-07-16T14:23:18.838Z,1.20
2018-07-16T14:25:46.546Z,1.20
2018-07-16T14:28:14.829Z,1.30
2018-07-16T14:30:42.566Z,1.30
2018-07-16T14:33:10.277Z,1.13
2018-07-16T14:35:38.083Z,1.10
2018-07-16T14:38:05.818Z,1.40
2018-07-16T14:40:34.028Z,1.20
2018-07-16T14:43:02.649Z,1.40
2018-07-16T14:45:30.489Z,1.20
2018-07-16T14:47:58.889Z,1.20
2018-07-16T14:50:26.653Z,1.30
2018-07-16T14:52:54.387Z,1.20
2018-07-16T14:55:22.067Z,1.30
2018-07-16T14:57:49.784Z,1.40
2018-07-16T15:00:18.296Z,1.30
2018-07-16T15:02:46.025Z,1.20
2018-07-16T15:05:13.719Z,1.40
2018-07-16T15:07:41.412Z,1.30
2018-07-16T15:10:09.120Z,1.40
2018-07-16T15:12:36.824Z,1.30
2018-07-16T15:15:04.564Z,1.20
2018-07-16T15:17:32.333Z,1.40
2018-07-16T15:20:00.155Z,1.27
2018-07-16T15:22:27.749Z,1.20
2018-07-16T15:24:55.453Z,1.20
2018-07-16T15:27:23.123Z,1.23
2018-07-16T15:29:50.819Z,1.30
2018-07-16T15:32:18.520Z,1.27
2018-07-16T15:34:46.222Z,1.23
2018-07-16T15:37:13.940Z,1.17
2018-07-16T15:39:41.628Z,1.30
2018-07-16T15:42:09.316Z,1.47
2018-07-16T15:44:37.016Z,1.33
2018-07-16T15:47:05.033Z,1.30
2018-07-16T15:49:32.729Z,1.50
2018-07-16T15:52:00.432Z,1.27
2018-07-16T15:54:28.137Z,1.30
2018-07-16T15:56:55.951Z,1.40
2018-07-16T15:59:23.653Z,1.37
2018-07-16T16:01:51.363Z,1.33
2018-07-16T16:04:19.068Z,1.33
2018-07-16T16:06:46.767Z,1.40
2018-07-16T16:09:14.473Z,1.30
2018-07-16T16:11:42.152Z,1.40
2018-07-16T16:14:09.886Z,1.40
2018-07-16T16:16:37.605Z,1.27
2018-07-16T16:19:05.194Z,1.33
2018-07-16T16:21:33.185Z,1.50
2018-07-16T16:24:00.909Z,1.20
2018-07-16T16:26:28.618Z,1.47
2018-07-16T16:28:56.329Z,1.40
2018-07-16T16:31:23.956Z,1.30
2018-07-16T16:33:51.755Z,1.43
2018-07-16T16:36:19.508Z,1.20
2018-07-16T16:38:47.893Z,1.40
2018-07-16T16:41:15.631Z,1.40
2018-07-16T16:43:43.389Z,1.37
2018-07-16T16:46:11.121Z,1.47
2018-07-16T16:48:38.836Z,1.40
2018-07-16T16:51:06.545Z,1.40
2018-07-16T16:53:34.276Z,1.20
2018-07-16T16:56:03.245Z,1.40
2018-07-16T16:58:31.859Z,1.40
2018-07-16T17:00:59.540Z,1.43
2018-07-16T17:03:27.261Z,1.50
2018-07-16T17:05:54.958Z,1.57
2018-07-16T17:08:22.668Z,1.60
2018-07-16T17:10:50.381Z,1.80
2018-07-16T17:13:18.109Z,1.70
2018-07-16T17:15:45.795Z,1.70
2018-07-16T17:18:13.964Z,1.80
2018-07-16T17:20:41.813Z,1.60
2018-07-16T17:23:09.539Z,1.80
2018-07-16T17:25:37.246Z,1.50
2018-07-16T17:28:04.993Z,1.40
2018-07-16T17:30:32.717Z,1.67
2018-07-16T17:33:00.497Z,1.67
2018-07-16T17:35:28.193Z,1.60
2018-07-16T17:37:55.902Z,1.70
2018-07-16T17:40:23.642Z,1.67
2018-07-16T17:42:51.434Z,1.93
2018-07-16T17:45:19.159Z,1.70
2018-07-16T17:47:47.464Z,1.80
2018-07-16T17:50:15.194Z,1.80
2018-07-16T17:52:42.940Z,1.90
2018-07-16T17:55:10.650Z,1.73
2018-07-16T17:57:38.836Z,1.80
2018-07-16T18:00:07.182Z,1.80
2018-07-16T18:02:35.500Z,1.80
2018-07-16T18:05:04.279Z,1.93
2018-07-16T18:07:32.023Z,1.80
2018-07-16T18:09:59.742Z,1.90
2018-07-16T18:12:27.517Z,1.70
2018-07-16T18:14:55.218Z,1.93
2018-07-16T18:17:22.955Z,1.77
2018-07-16T18:19:50.660Z,2.00
2018-07-16T18:22:19.212Z,1.90
2018-07-16T18:24:47.510Z,1.70
2018-07-16T18:27:16.076Z,1.93
2018-07-16T18:29:43.914Z,1.70
2018-07-16T18:32:11.652Z,2.00
2018-07-16T18:34:39.392Z,1.77
2018-07-16T18:37:07.138Z,1.90
2018-07-16T18:39:35.577Z,2.20
2018-07-16T18:42:03.674Z,1.80
2018-07-16T18:44:31.764Z,2.10
2018-07-16T18:46:59.542Z,1.70
2018-07-16T18:49:27.596Z,2.00
2018-07-16T18:51:55.588Z,2.00
2018-07-16T18:54:23.326Z,2.10
2018-07-16T18:56:51.068Z,1.80
2018-07-16T18:59:18.841Z,1.70
2018-07-16T19:01:46.594Z,2.00
2018-07-16T19:04:14.389Z,1.97
2018-07-16T19:06:42.140Z,2.00
2018-07-16T19:09:10.528Z,1.80
2018-07-16T19:11:39.143Z,2.00
2018-07-16T19:14:08.129Z,2.07
2018-07-16T19:16:35.987Z,2.23
2018-07-16T19:19:03.734Z,2.13
2018-07-16T19:21:31.826Z,1.80
2018-07-16T19:24:00.228Z,1.97
2018-07-16T19:26:28.006Z,1.93
2018-07-16T19:28:56.405Z,2.20
2018-07-16T19:31:24.419Z,2.00
2018-07-16T19:33:52.578Z,1.90
2018-07-16T19:36:20.878Z,1.90
2018-07-16T19:38:49.031Z,1.97
2018-07-16T19:41:16.697Z,2.10
2018-07-16T19:43:44.440Z,2.20
2018-07-16T19:46:12.202Z,1.90
2018-07-16T19:48:39.976Z,2.10
2018-07-16T19:51:07.723Z,1.93
2018-07-16T19:53:35.426Z,1.80
2018-07-16T19:56:03.211Z,2.07
2018-07-16T19:58:30.918Z,2.00
2018-07-16T20:00:58.668Z,2.10
2018-07-16T20:03:26.362Z,1.93
2018-07-16T20:05:54.109Z,2.00
2018-07-16T20:08:21.908Z,1.90
2018-07-16T20:10:49.582Z,2.00
2018-07-16T20:13:17.360Z,2.20
2018-07-16T20:15:45.279Z,2.00
2018-07-16T20:18:12.761Z,2.00
2018-07-16T20:20:53.479Z,1.97
2018-07-16T20:23:21.196Z,1.87
2018-07-16T20:25:49.749Z,1.83
2018-07-16T20:28:17.941Z,2.07
2018-07-16T20:30:45.760Z,1.80
2018-07-16T20:33:13.484Z,2.00
2018-07-16T20:35:41.247Z,1.90
2018-07-16T20:38:09.432Z,1.80
2018-07-16T20:40:37.180Z,1.90
2018-07-16T20:43:04.942Z,2.33
2018-07-16T20:45:32.649Z,1.83
2018-07-16T20:48:00.412Z,2.17
2018-07-16T20:50:28.850Z,2.00
2018-07-16T20:52:57.071Z,2.00
2018-07-16T20:55:24.831Z,1.80
2018-07-16T20:57:52.549Z,2.20
2018-07-16T21:00:20.634Z,2.00
2018-07-16T21:02:49.718Z,1.87
2018-07-16T21:05:17.810Z,2.03
2018-07-16T21:07:45.591Z,1.90
2018-07-16T21:10:14.143Z,2.07
2018-07-16T21:12:42.772Z,1.90
2018-07-16T21:15:10.536Z,2.40
2018-07-16T21:17:38.616Z,1.97
2018-07-16T21:20:07.688Z,2.10
2018-07-16T21:22:35.412Z,2.00
2018-07-16T21:25:03.217Z,1.93
2018-07-16T21:27:30.951Z,2.00
2018-07-16T21:29:58.690Z,1.90
2018-07-16T21:32:26.389Z,2.10
2018-07-16T21:34:54.144Z,2.20
2018-07-16T21:37:21.880Z,2.23
2018-07-16T21:39:49.582Z,2.00
2018-07-16T21:42:17.309Z,2.20
2018-07-16T21:44:45.026Z,1.90
2018-07-16T21:47:13.404Z,2.17
2018-07-16T21:49:41.797Z,1.93
2018-07-16T21:52:09.513Z,1.93
2018-07-16T21:54:37.261Z,1.90
2018-07-16T21:57:05.026Z,2.00
2018-07-16T21:59:33.312Z,2.23
2018-07-16T22:02:01.730Z,2.00
2018-07-16T22:04:30.062Z,1.90
2018-07-16T22:06:57.789Z,2.00
2018-07-16T22:09:25.553Z,2.00
2018-07-16T22:11:53.150Z,2.00
2018-07-16T22:14:20.917Z,2.30
2018-07-16T22:16:48.700Z,2.10
2018-07-16T22:19:16.466Z,2.00
2018-07-16T22:21:44.200Z,2.07
2018-07-16T22:24:11.963Z,2.30
2018-07-16T22:26:39.676Z,2.10
2018-07-16T22:29:07.446Z,2.40
2018-07-16T22:31:35.175Z,2.00
2018-07-16T22:34:02.979Z,2.10
2018-07-16T22:36:30.734Z,2.00
2018-07-16T22:38:58.477Z,2.17
2018-07-16T22:41:26.168Z,2.10
2018-07-16T22:43:53.892Z,2.20
2018-07-16T22:46:21.670Z,2.07
2018-07-16T22:48:49.389Z,2.10
2018-07-16T22:51:17.127Z,2.07
2018-07-16T22:53:44.960Z,2.20
2018-07-16T22:56:12.738Z,2.20
2018-07-16T22:58:40.444Z,2.07
2018-07-16T23:01:08.165Z,2.20
2018-07-16T23:03:35.917Z,2.00
2018-07-16T23:06:03.646Z,2.20
2018-07-16T23:08:31.241Z,2.30
2018-07-16T23:10:59.017Z,2.07
2018-07-16T23:13:26.756Z,2.10
2018-07-16T23:15:54.458Z,2.00
2018-07-16T23:18:22.177Z,2.30
2018-07-16T23:20:49.939Z,2.10
2018-07-16T23:23:17.677Z,2.10
2018-07-16T23:25:45.638Z,2.17
2018-07-16T23:28:13.418Z,1.80
2018-07-16T23:30:42.000Z,2.37
2018-07-16T23:33:09.765Z,2.20
2018-07-16T23:35:37.514Z,2.17
2018-07-16T23:38:05.227Z,2.47
2018-07-16T23:40:32.930Z,2.27
2018-07-16T23:43:00.675Z,2.30
2018-07-16T23:45:28.411Z,2.10
2018-07-16T23:47:56.121Z,2.10
2018-07-16T23:50:23.943Z,2.30
2018-07-16T23:52:51.609Z,2.57
2018-07-16T23:55:19.377Z,2.37
2018-07-16T23:57:47.089Z,2.30
